Aérodrome :
LOGIN :

S'inscrire | Disclaimer

   EN    FR    IT 

 










Légende :    VFR   VFR Marginal   IFR   IFR Intensif   IFR Très Intensif
Visi : 
Plafond : 
>= 8 km
>= 3000ft
5 à 8 km
1000 à 3000 ft
1500m à 5 km
500 à 1000 ft
800 à 1500m
200 à 500 ft
< 800m
< 200 ft
Symboles :   Orages  Brouillard  Fortes neiges  Fortes précipitations  Vent > 20 kt
SIGMETs :   Divers  Orages  Givrage  Turbulence  Onde Orograph.  Cendres Volcan.






- Altitude de l'aérodrome : 604 ft
- Code IATA : LCJ


EPLL - Lodz

DERNIER METAR :
  • 191900Z 28012KT 9999 SCT008 BKN010 04/02 Q1013

METARs EXPIRÉS :
  • 191830Z 27017KT 240V300 9999 -RA SCT008 BKN010 04/03 Q1013
  • 191800Z 24010KT 9999 -RA BKN009 04/03 Q1012
  • 191730Z 24013KT 8000 -RA SCT007 BKN010 04/03 Q1012
  • 191700Z 22009KT 9999 -RA FEW009 BKN012 04/03 Q1012

TAF TAF EPLL
Valide du 19 à 18h jusqu'au 20 à 18h UTC


191730Z 1918/2018 22010KT 9999 SCT040
BECMG 1918/1920 28012KT
TEMPO 1918/1923 29015G25KT -SHRA BKN007 BKN012CB
PROB40
TEMPO 1923/2010 4000 -SHRAGS BKN005 BKN012CB
BECMG 2015/2018 18010KT



MET'MAP, la Météo Aéronautique d'un coup d'oeil ! - Copyright ORBIFLY Décembre 2007 - Disclaimer

ORBIFLY MET'MAP TEAM :

Programmation & Développement : Alexandra Zaïnal
Sur une idée originale de : Baudouin d'Aumeries
Assistance à la programmation : Marc-Olivier Méhu
Soutien technique & logistique : Manuel Goepfert

Contact : metmap@orbifly.com




SOURCES & CREDITS :

   NOAA